Time;durP1;ratioP1;P1;durP2;ratioP2;P2;SDS_P1;SDS_P2;PMS_P1;PMS_P2;Temp;Humidity;BMP_temperature;BMP_pressure;BME280_temperature;BME280_humidity;BME280_pressure;Samples;Min_cycle;Max_cycle;Signal;HPM_P1;HPM_P2
2021/01/25 00:01:35;;;;;;;;;;;17.20;57.00;;;;;;5080419;28;19931;-54
2021/01/25 00:04:02;;;;;;;;;;;17.20;57.00;;;;;;5069794;28;19932;-56
2021/01/25 00:06:28;;;;;;;;;;;17.20;57.10;;;;;;5071244;28;20247;-54
2021/01/25 00:08:54;;;;;;;;;;;17.20;57.10;;;;;;5071640;28;20403;-54
2021/01/25 00:11:20;;;;;;;;;;;17.10;57.10;;;;;;5061742;28;19925;-54
2021/01/25 00:13:47;;;;;;;;;;;17.10;57.10;;;;;;5072229;28;19924;-54
2021/01/25 00:16:13;;;;;;;;;;;17.10;57.00;;;;;;5063008;28;19935;-54
2021/01/25 00:18:39;;;;;;;;;;;17.10;57.00;;;;;;5071032;28;19925;-56
2021/01/25 00:21:05;;;;;;;;;;;17.10;57.00;;;;;;5063670;28;19924;-56
2021/01/25 00:23:31;;;;;;;;;;;17.00;57.00;;;;;;5070941;28;19967;-56
2021/01/25 00:25:58;;;;;;;;;;;17.00;57.00;;;;;;5063174;28;20372;-56
2021/01/25 00:28:24;;;;;;;;;;;17.00;57.00;;;;;;5069215;28;19933;-54
2021/01/25 00:30:50;;;;;;;;;;;17.00;57.00;;;;;;5068890;28;19925;-55
2021/01/25 00:33:16;;;;;;;;;;;17.00;57.10;;;;;;5070265;28;19925;-55
2021/01/25 00:35:43;;;;;;;;;;;17.00;57.10;;;;;;5063110;28;20009;-55
2021/01/25 00:38:10;;;;;;;;;;;16.90;57.10;;;;;;5068169;28;19924;-55
2021/01/25 00:40:37;;;;;;;;;;;16.90;57.10;;;;;;5066528;28;19924;-55
2021/01/25 00:43:03;;;;;;;;;;;16.90;57.10;;;;;;5065154;28;19924;-55
2021/01/25 00:45:29;;;;;;;;;;;16.90;57.10;;;;;;5068084;28;19931;-55
2021/01/25 00:47:55;;;;;;;;;;;16.90;57.10;;;;;;5062591;28;19935;-55
2021/01/25 00:50:23;;;;;;;;;;;16.80;57.10;;;;;;5066791;28;19952;-55
2021/01/25 00:52:50;;;;;;;;;;;16.90;57.10;;;;;;5062430;28;19925;-57
2021/01/25 00:55:16;;;;;;;;;;;16.80;57.10;;;;;;5070172;28;19925;-55
2021/01/25 00:57:42;;;;;;;;;;;16.80;57.20;;;;;;5060422;28;19932;-55
2021/01/25 01:00:09;;;;;;;;;;;16.80;57.20;;;;;;5065320;28;19931;-56
2021/01/25 01:02:36;;;;;;;;;;;16.70;57.10;;;;;;5063963;28;19924;-55
2021/01/25 01:05:04;;;;;;;;;;;16.70;57.20;;;;;;5067338;28;19932;-56
2021/01/25 01:07:30;;;;;;;;;;;16.70;57.20;;;;;;5064202;28;20449;-55
2021/01/25 01:09:56;;;;;;;;;;;16.70;57.20;;;;;;5066497;28;19931;-56
2021/01/25 01:12:22;;;;;;;;;;;16.70;57.10;;;;;;5064538;28;19955;-55
2021/01/25 01:14:48;;;;;;;;;;;16.70;57.20;;;;;;5068839;28;19924;-57
2021/01/25 01:17:15;;;;;;;;;;;16.70;57.20;;;;;;5063446;28;19925;-57
2021/01/25 01:19:41;;;;;;;;;;;16.70;57.20;;;;;;5064953;28;20273;-56
2021/01/25 01:22:07;;;;;;;;;;;16.70;57.10;;;;;;5070055;28;19924;-56
2021/01/25 01:24:33;;;;;;;;;;;16.70;57.10;;;;;;5060283;28;20499;-57
2021/01/25 01:27:00;;;;;;;;;;;16.70;57.10;;;;;;5068390;28;19983;-56
2021/01/25 01:29:26;;;;;;;;;;;16.70;57.20;;;;;;5061261;28;19933;-57
2021/01/25 01:31:52;;;;;;;;;;;16.70;57.10;;;;;;5068448;28;20009;-56
2021/01/25 01:34:18;;;;;;;;;;;16.60;57.10;;;;;;5058175;28;19929;-57
2021/01/25 01:36:45;;;;;;;;;;;16.60;57.10;;;;;;5069056;28;19924;-57
2021/01/25 01:39:11;;;;;;;;;;;16.60;57.00;;;;;;5060018;28;20768;-57
2021/01/25 01:41:37;;;;;;;;;;;16.60;57.10;;;;;;5069788;28;19931;-56
2021/01/25 01:44:04;;;;;;;;;;;16.60;57.10;;;;;;5061654;28;19924;-56
2021/01/25 01:46:31;;;;;;;;;;;16.60;57.10;;;;;;5069830;28;19946;-56
2021/01/25 01:48:58;;;;;;;;;;;16.60;57.10;;;;;;5062045;28;19925;-57
2021/01/25 01:51:24;;;;;;;;;;;16.60;57.20;;;;;;5069459;28;20388;-57
2021/01/25 01:53:50;;;;;;;;;;;16.50;57.00;;;;;;5057205;28;19993;-57
2021/01/25 01:56:22;;;;;;;;;;;16.50;57.00;;;;;;5073151;28;19932;-57
2021/01/25 01:58:48;;;;;;;;;;;16.50;57.00;;;;;;5058491;28;20594;-57
2021/01/25 02:01:14;;;;;;;;;;;16.50;57.00;;;;;;5065556;28;20597;-56
2021/01/25 02:03:40;;;;;;;;;;;16.50;57.10;;;;;;5068297;28;19932;-56
2021/01/25 02:06:08;;;;;;;;;;;16.50;57.00;;;;;;5061326;28;19932;-57
2021/01/25 02:08:36;;;;;;;;;;;16.50;57.00;;;;;;5064541;28;19925;-57
2021/01/25 02:11:02;;;;;;;;;;;16.50;57.00;;;;;;5059724;28;19932;-57
2021/01/25 02:13:29;;;;;;;;;;;16.50;57.00;;;;;;5068425;28;19924;-57
2021/01/25 02:15:55;;;;;;;;;;;16.50;57.00;;;;;;5060529;28;20277;-57
2021/01/25 02:18:22;;;;;;;;;;;16.50;57.60;;;;;;5066342;28;19932;-57
2021/01/25 02:20:48;;;;;;;;;;;16.40;57.00;;;;;;5059640;28;19925;-57
2021/01/25 02:23:17;;;;;;;;;;;16.40;56.90;;;;;;5067594;28;19939;-57
2021/01/25 02:26:02;;;;;;;;;;;16.50;57.00;;;;;;5060550;28;20401;-57
2021/01/25 02:28:31;;;;;;;;;;;16.40;57.00;;;;;;5064812;28;19932;-57
2021/01/25 02:30:58;;;;;;;;;;;16.40;57.00;;;;;;5060956;28;20293;-57
2021/01/25 02:33:26;;;;;;;;;;;16.40;57.00;;;;;;5066354;28;19925;-57
2021/01/25 02:35:53;;;;;;;;;;;16.40;56.90;;;;;;5058798;28;19978;-57
2021/01/25 02:38:20;;;;;;;;;;;16.40;56.90;;;;;;5067957;28;19931;-57
2021/01/25 02:40:47;;;;;;;;;;;16.40;57.50;;;;;;5056499;28;20966;-57
2021/01/25 02:43:14;;;;;;;;;;;16.40;56.90;;;;;;5066366;28;19931;-57
2021/01/25 02:45:42;;;;;;;;;;;16.40;56.90;;;;;;5059266;28;19925;-57
2021/01/25 02:48:08;;;;;;;;;;;16.40;56.90;;;;;;5065237;28;19925;-57
2021/01/25 02:50:34;;;;;;;;;;;16.40;57.00;;;;;;5067626;28;20545;-57
2021/01/25 02:53:00;;;;;;;;;;;16.30;56.80;;;;;;5062164;28;20288;-57
2021/01/25 02:55:27;;;;;;;;;;;16.30;56.90;;;;;;5073391;28;19939;-57
2021/01/25 02:57:55;;;;;;;;;;;16.30;56.90;;;;;;5057173;28;19932;-56
2021/01/25 03:00:21;;;;;;;;;;;16.30;56.90;;;;;;5068945;28;19931;-57
2021/01/25 03:02:47;;;;;;;;;;;16.30;56.80;;;;;;5058262;28;19939;-57
2021/01/25 03:05:19;;;;;;;;;;;16.30;56.80;;;;;;5072149;28;19925;-57
2021/01/25 03:07:45;;;;;;;;;;;16.30;56.80;;;;;;5059129;28;19924;-57
2021/01/25 03:10:11;;;;;;;;;;;16.30;56.80;;;;;;5066770;28;20307;-56
2021/01/25 03:12:38;;;;;;;;;;;16.30;56.80;;;;;;5060915;28;19931;-57
2021/01/25 03:15:05;;;;;;;;;;;16.30;56.80;;;;;;5065683;28;20311;-57
2021/01/25 03:17:32;;;;;;;;;;;16.30;56.80;;;;;;5059052;28;19936;-56
2021/01/25 03:19:58;;;;;;;;;;;16.30;56.80;;;;;;5068825;28;20393;-56
2021/01/25 03:22:25;;;;;;;;;;;16.20;56.70;;;;;;5065329;28;19924;-57
2021/01/25 03:24:51;;;;;;;;;;;16.30;56.80;;;;;;5071394;28;20004;-57
2021/01/25 03:27:17;;;;;;;;;;;16.30;56.70;;;;;;5062743;28;19940;-57
2021/01/25 03:29:43;;;;;;;;;;;16.20;56.70;;;;;;5073774;28;19924;-57
2021/01/25 03:32:09;;;;;;;;;;;16.20;56.70;;;;;;5068580;28;20404;-57
2021/01/25 03:34:36;;;;;;;;;;;16.20;56.70;;;;;;5071582;28;19930;-57
2021/01/25 03:37:02;;;;;;;;;;;16.20;56.60;;;;;;5074077;28;19928;-56
2021/01/25 03:39:28;;;;;;;;;;;16.20;56.60;;;;;;5068292;28;19924;-57
2021/01/25 03:41:54;;;;;;;;;;;16.20;56.70;;;;;;5069580;28;19929;-57
2021/01/25 03:44:21;;;;;;;;;;;16.20;56.70;;;;;;5062796;28;20404;-57
2021/01/25 03:46:47;;;;;;;;;;;16.20;56.70;;;;;;5072699;28;20221;-56
2021/01/25 03:49:14;;;;;;;;;;;16.20;56.70;;;;;;5064197;28;19928;-57
2021/01/25 03:51:40;;;;;;;;;;;16.20;56.80;;;;;;5071209;28;19931;-57
2021/01/25 03:54:07;;;;;;;;;;;16.20;56.70;;;;;;5065047;28;20003;-57
2021/01/25 03:56:34;;;;;;;;;;;16.20;56.60;;;;;;5067663;28;19951;-57
2021/01/25 03:59:00;;;;;;;;;;;16.20;56.60;;;;;;5061996;28;19931;-57
2021/01/25 04:01:26;;;;;;;;;;;16.20;56.60;;;;;;5069183;28;20384;-57
2021/01/25 04:03:52;;;;;;;;;;;16.20;56.60;;;;;;5062138;28;19967;-57
2021/01/25 04:06:18;;;;;;;;;;;16.10;56.60;;;;;;5069743;28;19924;-56
2021/01/25 04:08:45;;;;;;;;;;;16.10;56.60;;;;;;5064313;28;19925;-56
2021/01/25 04:11:11;;;;;;;;;;;16.10;56.60;;;;;;5069551;28;20490;-56
2021/01/25 04:13:37;;;;;;;;;;;16.10;56.60;;;;;;5070918;28;20372;-56
2021/01/25 04:16:03;;;;;;;;;;;16.10;56.60;;;;;;5066432;28;19924;-57
2021/01/25 04:18:29;;;;;;;;;;;16.10;56.60;;;;;;5066717;28;19924;-57
2021/01/25 04:20:56;;;;;;;;;;;16.10;56.50;;;;;;5062594;28;19925;-56
2021/01/25 04:23:22;;;;;;;;;;;16.10;56.60;;;;;;5069900;28;19975;-57
2021/01/25 04:25:48;;;;;;;;;;;16.10;56.60;;;;;;5062853;28;19939;-57
2021/01/25 04:28:14;;;;;;;;;;;16.10;56.50;;;;;;5068786;28;19929;-57
2021/01/25 04:30:40;;;;;;;;;;;16.10;56.50;;;;;;5072471;28;19925;-57
2021/01/25 04:33:07;;;;;;;;;;;16.10;56.50;;;;;;5068939;28;19924;-57
2021/01/25 04:35:39;;;;;;;;;;;16.10;56.50;;;;;;5060400;28;19924;-57
2021/01/25 04:38:06;;;;;;;;;;;16.10;56.50;;;;;;5063853;28;19924;-57
2021/01/25 04:40:32;;;;;;;;;;;16.10;56.50;;;;;;5060938;28;20419;-57
2021/01/25 04:43:00;;;;;;;;;;;16.10;56.50;;;;;;5067964;28;19924;-57
2021/01/25 04:45:31;;;;;;;;;;;16.10;56.50;;;;;;5064381;28;19936;-57
2021/01/25 04:47:59;;;;;;;;;;;16.10;56.50;;;;;;5067936;28;20455;-57
2021/01/25 04:50:25;;;;;;;;;;;16.10;56.50;;;;;;5064578;28;19930;-57
2021/01/25 04:52:52;;;;;;;;;;;16.10;56.40;;;;;;5067716;28;20277;-57
2021/01/25 04:55:24;;;;;;;;;;;16.10;56.50;;;;;;5069864;28;19924;-57
2021/01/25 04:57:52;;;;;;;;;;;16.00;56.50;;;;;;5062779;28;19925;-57
2021/01/25 05:00:19;;;;;;;;;;;16.10;56.50;;;;;;5070637;28;20386;-57
2021/01/25 05:02:45;;;;;;;;;;;16.00;56.40;;;;;;5062640;28;19943;-57
2021/01/25 05:05:11;;;;;;;;;;;16.10;56.50;;;;;;5071143;28;19924;-57
2021/01/25 05:07:38;;;;;;;;;;;16.00;56.40;;;;;;5059637;28;19925;-57
2021/01/25 05:10:05;;;;;;;;;;;16.00;56.40;;;;;;5070403;28;19928;-57
2021/01/25 05:12:48;;;;;;;;;;;16.00;56.40;;;;;;5060945;28;20374;-57
2021/01/25 05:15:25;;;;;;;;;;;16.00;56.40;;;;;;5067121;28;20289;-57
2021/01/25 05:17:52;;;;;;;;;;;16.00;56.40;;;;;;5059942;28;19928;-57
2021/01/25 05:20:22;;;;;;;;;;;16.00;56.40;;;;;;5072991;28;19964;-57
2021/01/25 05:22:48;;;;;;;;;;;16.00;56.40;;;;;;5060048;28;19932;-56
2021/01/25 05:25:22;;;;;;;;;;;16.00;56.40;;;;;;5074170;28;19924;-57
2021/01/25 05:27:48;;;;;;;;;;;16.00;56.40;;;;;;5059010;28;19932;-57
2021/01/25 05:30:14;;;;;;;;;;;16.00;56.40;;;;;;5069259;28;19962;-57
2021/01/25 05:32:50;;;;;;;;;;;16.00;56.40;;;;;;5060259;28;19925;-57
2021/01/25 05:35:18;;;;;;;;;;;16.00;56.40;;;;;;5075843;28;20285;-57
2021/01/25 05:37:50;;;;;;;;;;;15.90;56.40;;;;;;5058988;28;19925;-57
2021/01/25 05:40:16;;;;;;;;;;;16.00;56.40;;;;;;5071240;28;20284;-57
2021/01/25 05:42:43;;;;;;;;;;;16.00;56.40;;;;;;5064176;28;20381;-57
2021/01/25 05:45:10;;;;;;;;;;;15.90;56.20;;;;;;5071541;28;19925;-57
2021/01/25 05:47:46;;;;;;;;;;;16.00;56.40;;;;;;5061214;28;19928;-56
2021/01/25 05:50:25;;;;;;;;;;;15.90;56.50;;;;;;5069824;28;20434;-57
2021/01/25 05:52:52;;;;;;;;;;;16.00;56.60;;;;;;5060924;28;19935;-57
2021/01/25 05:55:20;;;;;;;;;;;16.00;56.70;;;;;;5065675;28;19924;-57
2021/01/25 05:57:46;;;;;;;;;;;15.90;56.80;;;;;;5064461;28;20019;-57
2021/01/25 06:00:12;;;;;;;;;;;15.90;56.90;;;;;;5061264;28;20497;-57
2021/01/25 06:02:41;;;;;;;;;;;15.90;56.80;;;;;;5067718;28;19932;-57
2021/01/25 06:05:09;;;;;;;;;;;15.90;56.90;;;;;;5062208;28;19931;-57
2021/01/25 06:07:37;;;;;;;;;;;16.00;57.00;;;;;;5065105;28;20440;-56
2021/01/25 06:10:04;;;;;;;;;;;16.00;57.00;;;;;;5063130;28;19936;-57
2021/01/25 06:12:31;;;;;;;;;;;16.00;57.00;;;;;;5068476;28;19924;-57
2021/01/25 06:15:08;;;;;;;;;;;16.00;57.00;;;;;;5059011;28;19932;-58
2021/01/25 06:17:34;;;;;;;;;;;15.90;56.90;;;;;;5065766;28;19924;-57
2021/01/25 06:20:05;;;;;;;;;;;15.90;56.90;;;;;;5060510;28;19925;-57
2021/01/25 06:22:34;;;;;;;;;;;15.90;56.90;;;;;;5067124;28;19935;-57
2021/01/25 06:25:07;;;;;;;;;;;15.90;56.90;;;;;;5066180;28;19926;-57
2021/01/25 06:27:33;;;;;;;;;;;15.90;56.90;;;;;;5065111;28;19924;-57
2021/01/25 06:30:00;;;;;;;;;;;15.90;56.90;;;;;;5068389;28;19938;-57
2021/01/25 06:32:36;;;;;;;;;;;15.90;57.10;;;;;;5065036;28;20400;-57
2021/01/25 06:35:11;;;;;;;;;;;15.90;57.30;;;;;;5061069;28;19928;-57
2021/01/25 06:37:37;;;;;;;;;;;15.90;57.40;;;;;;5063036;28;19947;-57
2021/01/25 06:40:07;;;;;;;;;;;15.90;57.80;;;;;;5060774;28;19925;-57
2021/01/25 06:42:36;;;;;;;;;;;15.90;57.80;;;;;;5066754;28;20617;-57
2021/01/25 06:45:03;;;;;;;;;;;15.90;57.80;;;;;;5070321;28;20281;-57
2021/01/25 06:47:30;;;;;;;;;;;15.90;57.70;;;;;;5069746;28;20575;-57
2021/01/25 06:49:58;;;;;;;;;;;15.90;57.60;;;;;;5062682;28;20323;-57
2021/01/25 06:52:29;;;;;;;;;;;15.90;57.50;;;;;;5061614;28;19998;-56
2021/01/25 06:55:01;;;;;;;;;;;15.90;57.40;;;;;;5065160;28;19925;-57
2021/01/25 06:57:27;;;;;;;;;;;15.90;57.40;;;;;;5055936;28;19952;-57
2021/01/25 06:59:55;;;;;;;;;;;15.90;57.20;;;;;;5067783;28;19925;-57
2021/01/25 07:02:23;;;;;;;;;;;15.90;57.10;;;;;;5059163;28;19924;-57
2021/01/25 07:04:56;;;;;;;;;;;15.90;57.00;;;;;;5051365;28;19925;-57
2021/01/25 07:07:22;;;;;;;;;;;15.90;56.90;;;;;;5057130;28;20048;-57
2021/01/25 07:09:51;;;;;;;;;;;15.90;56.90;;;;;;5064820;28;19933;-57
2021/01/25 07:12:17;;;;;;;;;;;15.90;56.90;;;;;;5053122;28;19933;-57
2021/01/25 07:14:43;;;;;;;;;;;15.90;56.90;;;;;;5062965;28;19924;-57
2021/01/25 07:17:10;;;;;;;;;;;15.90;57.60;;;;;;5067663;28;19936;-57
2021/01/25 07:19:36;;;;;;;;;;;15.90;57.50;;;;;;5060687;28;19924;-57
2021/01/25 07:22:03;;;;;;;;;;;15.90;57.80;;;;;;5060838;28;19929;-56
2021/01/25 07:24:29;;;;;;;;;;;15.90;57.80;;;;;;5066637;28;20397;-56
2021/01/25 07:26:57;;;;;;;;;;;15.90;58.10;;;;;;5063643;28;19925;-54
2021/01/25 07:29:24;;;;;;;;;;;15.90;58.10;;;;;;5067029;28;20284;-54
2021/01/25 07:31:51;;;;;;;;;;;15.90;58.20;;;;;;5073162;28;20011;-54
2021/01/25 07:34:18;;;;;;;;;;;15.90;57.90;;;;;;5069971;28;20533;-54
2021/01/25 07:36:44;;;;;;;;;;;15.90;57.60;;;;;;5071614;28;19928;-56
2021/01/25 07:39:14;;;;;;;;;;;15.90;58.20;;;;;;5060487;28;19924;-56
2021/01/25 07:41:41;;;;;;;;;;;15.90;59.50;;;;;;5059836;28;20446;-56
2021/01/25 07:44:08;;;;;;;;;;;15.90;59.30;;;;;;5055823;28;19931;-56
2021/01/25 07:46:35;;;;;;;;;;;15.90;58.90;;;;;;5065241;28;19932;-56
2021/01/25 07:49:05;;;;;;;;;;;15.90;58.50;;;;;;5056337;28;19999;-56
2021/01/25 07:51:33;;;;;;;;;;;15.90;58.30;;;;;;5062539;28;20372;-56
2021/01/25 07:54:00;;;;;;;;;;;15.90;58.00;;;;;;5059446;28;19925;-56
2021/01/25 07:56:26;;;;;;;;;;;15.90;58.00;;;;;;5060706;28;19939;-56
2021/01/25 07:59:06;;;;;;;;;;;15.90;58.10;;;;;;5061401;28;20287;-56
2021/01/25 08:01:35;;;;;;;;;;;15.90;58.00;;;;;;5067722;28;19932;-56
2021/01/25 08:04:02;;;;;;;;;;;15.90;58.00;;;;;;5060704;28;19951;-56
2021/01/25 08:06:32;;;;;;;;;;;15.80;58.20;;;;;;5068834;28;20392;-55
2021/01/25 08:08:58;;;;;;;;;;;15.90;58.20;;;;;;5062224;28;20472;-56
2021/01/25 08:11:25;;;;;;;;;;;15.90;58.50;;;;;;5067943;28;20250;-55
2021/01/25 08:13:59;;;;;;;;;;;15.90;58.70;;;;;;5063031;28;19933;-55
2021/01/25 08:16:26;;;;;;;;;;;15.90;58.40;;;;;;5070324;28;19931;-56
2021/01/25 08:18:58;;;;;;;;;;;15.90;58.20;;;;;;5059993;28;19929;-56
2021/01/25 08:21:29;;;;;;;;;;;15.90;58.00;;;;;;5075964;28;19930;-56
2021/01/25 08:23:57;;;;;;;;;;;15.90;57.90;;;;;;5062334;28;19932;-60
2021/01/25 08:26:25;;;;;;;;;;;15.90;58.00;;;;;;5063106;28;20311;-55
2021/01/25 08:28:56;;;;;;;;;;;16.10;58.40;;;;;;5066598;28;19928;-55
2021/01/25 08:31:31;;;;;;;;;;;16.30;58.70;;;;;;5073484;28;19928;-56
2021/01/25 08:33:59;;;;;;;;;;;16.50;58.40;;;;;;5069576;28;19924;-55
2021/01/25 08:36:35;;;;;;;;;;;16.60;58.70;;;;;;5068328;28;19993;-58
2021/01/25 08:39:09;;;;;;;;;;;16.70;59.00;;;;;;5069722;28;20381;-57
2021/01/25 08:41:35;;;;;;;;;;;16.80;58.50;;;;;;5070019;28;19939;-57
2021/01/25 08:44:10;;;;;;;;;;;16.80;58.70;;;;;;5064781;28;19924;-58
2021/01/25 08:46:40;;;;;;;;;;;16.90;58.40;;;;;;5066550;28;19928;-57
2021/01/25 08:49:17;;;;;;;;;;;16.90;58.20;;;;;;5071540;28;19925;-58
2021/01/25 08:51:56;;;;;;;;;;;16.90;58.20;;;;;;5064042;28;19932;-56
2021/01/25 08:54:30;;;;;;;;;;;17.00;58.20;;;;;;5065324;28;20483;-56
2021/01/25 08:56:57;;;;;;;;;;;17.00;56.80;;;;;;5063212;28;19932;-60
2021/01/25 08:59:27;;;;;;;;;;;17.40;57.10;;;;;;5068341;28;20383;-60
2021/01/25 09:01:54;;;;;;;;;;;18.10;55.50;;;;;;5061262;28;20745;-62
2021/01/25 09:04:20;;;;;;;;;;;18.70;54.30;;;;;;5066089;28;19929;-63
2021/01/25 09:06:48;;;;;;;;;;;19.10;53.30;;;;;;5063878;28;20523;-63
2021/01/25 09:09:14;;;;;;;;;;;19.60;52.20;;;;;;5067552;28;19924;-62
2021/01/25 09:11:40;;;;;;;;;;;19.80;51.40;;;;;;5060547;28;19928;-61
2021/01/25 09:14:07;;;;;;;;;;;20.10;51.10;;;;;;5068585;28;19930;-62
2021/01/25 09:16:33;;;;;;;;;;;20.30;50.50;;;;;;5063830;28;20283;-63
2021/01/25 09:18:59;;;;;;;;;;;20.60;50.10;;;;;;5067960;28;20308;-60
2021/01/25 09:21:25;;;;;;;;;;;20.80;49.40;;;;;;5059150;28;19925;-60
2021/01/25 09:23:52;;;;;;;;;;;21.00;49.00;;;;;;5069862;28;19929;-60
2021/01/25 09:26:18;;;;;;;;;;;21.10;48.90;;;;;;5062448;28;19925;-60
2021/01/25 09:28:44;;;;;;;;;;;21.30;48.60;;;;;;5068651;28;19933;-62
2021/01/25 09:31:11;;;;;;;;;;;21.40;48.40;;;;;;5067508;28;19931;-61
2021/01/25 09:33:38;;;;;;;;;;;21.60;48.10;;;;;;5061736;28;19932;-60
2021/01/25 09:36:04;;;;;;;;;;;21.80;47.80;;;;;;5060924;28;19932;-60
2021/01/25 09:38:32;;;;;;;;;;;21.80;47.50;;;;;;5057391;28;19936;-61
2021/01/25 09:40:58;;;;;;;;;;;21.90;47.40;;;;;;5064118;28;19924;-61
2021/01/25 09:43:25;;;;;;;;;;;22.10;47.30;;;;;;5062622;28;19931;-62
2021/01/25 09:45:51;;;;;;;;;;;22.10;47.20;;;;;;5066428;28;19931;-62
2021/01/25 09:48:17;;;;;;;;;;;22.20;47.20;;;;;;5054918;28;19925;-61
2021/01/25 09:50:47;;;;;;;;;;;22.40;46.80;;;;;;5067210;28;19986;-56
2021/01/25 09:53:14;;;;;;;;;;;22.40;46.80;;;;;;5059163;28;19925;-56
2021/01/25 09:55:40;;;;;;;;;;;22.60;46.50;;;;;;5051460;28;20361;-56
2021/01/25 09:58:07;;;;;;;;;;;22.70;46.30;;;;;;5056652;28;20532;-55
2021/01/25 10:00:33;;;;;;;;;;;22.80;46.10;;;;;;5064880;28;19935;-55
2021/01/25 10:02:59;;;;;;;;;;;22.90;46.00;;;;;;5063722;28;19924;-54
2021/01/25 10:05:25;;;;;;;;;;;22.90;45.80;;;;;;5065148;28;20397;-55
2021/01/25 10:07:52;;;;;;;;;;;23.10;46.20;;;;;;5058927;28;19929;-55
2021/01/25 10:10:18;;;;;;;;;;;23.20;45.50;;;;;;5067264;28;19931;-55
2021/01/25 10:12:44;;;;;;;;;;;23.30;45.50;;;;;;5069333;28;20529;-55
2021/01/25 10:15:12;;;;;;;;;;;23.30;45.50;;;;;;5060772;28;19963;-56
2021/01/25 10:17:38;;;;;;;;;;;23.40;45.30;;;;;;5067963;28;19955;-55
2021/01/25 10:20:05;;;;;;;;;;;23.50;46.10;;;;;;5065228;28;19982;-56
2021/01/25 10:22:31;;;;;;;;;;;23.50;45.90;;;;;;5066793;28;19958;-57
2021/01/25 10:24:57;;;;;;;;;;;23.70;45.10;;;;;;5062348;28;19935;-57
2021/01/25 10:27:24;;;;;;;;;;;23.70;45.00;;;;;;5068830;28;19932;-62
2021/01/25 10:29:50;;;;;;;;;;;23.60;45.60;;;;;;5059792;28;19932;-61
2021/01/25 10:32:16;;;;;;;;;;;23.10;46.80;;;;;;5068327;28;19928;-62
2021/01/25 10:34:43;;;;;;;;;;;22.70;47.50;;;;;;5059848;28;19956;-61
2021/01/25 10:37:10;;;;;;;;;;;22.40;47.90;;;;;;5070847;28;19971;-61
2021/01/25 10:39:36;;;;;;;;;;;22.10;48.30;;;;;;5057308;28;19935;-62
2021/01/25 10:42:02;;;;;;;;;;;21.90;48.40;;;;;;5066688;28;19939;-58
2021/01/25 10:44:28;;;;;;;;;;;21.40;45.00;;;;;;5059771;28;19970;-58
2021/01/25 10:46:55;;;;;;;;;;;21.10;47.10;;;;;;5071966;28;19928;-60
2021/01/25 10:49:21;;;;;;;;;;;20.90;51.10;;;;;;5059144;28;19948;-58
2021/01/25 10:51:47;;;;;;;;;;;21.00;50.30;;;;;;5065191;28;19978;-60
2021/01/25 10:54:14;;;;;;;;;;;21.00;50.70;;;;;;5068961;28;20280;-61
2021/01/25 10:56:40;;;;;;;;;;;21.10;50.60;;;;;;5057299;28;19935;-60
2021/01/25 10:59:06;;;;;;;;;;;21.10;51.10;;;;;;5064805;28;19990;-60
2021/01/25 11:01:32;;;;;;;;;;;21.10;50.70;;;;;;5064102;28;20419;-61
2021/01/25 11:03:59;;;;;;;;;;;21.10;50.60;;;;;;5068699;28;20434;-60
2021/01/25 11:06:25;;;;;;;;;;;21.10;50.70;;;;;;5059066;28;19925;-60
2021/01/25 11:08:51;;;;;;;;;;;21.00;50.80;;;;;;5067212;28;19931;-59
2021/01/25 11:11:20;;;;;;;;;;;21.10;51.70;;;;;;5059411;28;19933;-60
2021/01/25 11:13:46;;;;;;;;;;;21.00;50.80;;;;;;5068142;28;19925;-60
2021/01/25 11:16:13;;;;;;;;;;;21.00;51.20;;;;;;5060316;28;20427;-59
2021/01/25 11:18:39;;;;;;;;;;;21.00;51.00;;;;;;5064091;28;19924;-61
2021/01/25 11:21:05;;;;;;;;;;;21.00;51.00;;;;;;5059279;28;19936;-60
2021/01/25 11:23:32;;;;;;;;;;;20.90;50.40;;;;;;5066633;28;19936;-61
2021/01/25 11:25:59;;;;;;;;;;;21.00;50.60;;;;;;5055714;28;19943;-61
2021/01/25 11:28:25;;;;;;;;;;;20.90;50.20;;;;;;5067674;28;19959;-61
2021/01/25 11:30:51;;;;;;;;;;;20.90;50.60;;;;;;5064064;28;19924;-56
2021/01/25 11:33:18;;;;;;;;;;;20.80;50.30;;;;;;5060718;28;20300;-55
2021/01/25 11:35:44;;;;;;;;;;;20.80;50.70;;;;;;5066394;28;19983;-60
2021/01/25 11:38:10;;;;;;;;;;;20.90;50.70;;;;;;5059589;28;19939;-60
2021/01/25 11:40:37;;;;;;;;;;;20.80;50.80;;;;;;5066758;28;19932;-60
2021/01/25 11:43:03;;;;;;;;;;;20.90;50.80;;;;;;5058076;28;19933;-60
2021/01/25 11:45:29;;;;;;;;;;;20.80;51.00;;;;;;5060548;28;19932;-62
2021/01/25 11:47:56;;;;;;;;;;;20.80;51.00;;;;;;5057806;28;19928;-57
2021/01/25 11:50:22;;;;;;;;;;;20.80;50.10;;;;;;5064066;28;19933;-57
2021/01/25 11:52:48;;;;;;;;;;;20.60;50.20;;;;;;5063501;28;19931;-58
2021/01/25 11:55:15;;;;;;;;;;;20.30;51.00;;;;;;5076822;28;20421;-53
2021/01/25 11:57:41;;;;;;;;;;;20.20;51.50;;;;;;5066244;28;19928;-53
2021/01/25 12:00:08;;;;;;;;;;;20.00;52.10;;;;;;5069240;28;19933;-54
2021/01/25 12:02:34;;;;;;;;;;;19.90;52.60;;;;;;5068093;28;20420;-52
2021/01/25 12:05:00;;;;;;;;;;;19.80;53.00;;;;;;5074178;28;20046;-54
2021/01/25 12:07:26;;;;;;;;;;;19.70;53.10;;;;;;5065125;28;19936;-53
2021/01/25 12:09:53;;;;;;;;;;;19.70;53.30;;;;;;5073069;28;19929;-53
2021/01/25 12:12:19;;;;;;;;;;;19.60;53.50;;;;;;5069455;28;19924;-53
2021/01/25 12:14:45;;;;;;;;;;;19.50;53.60;;;;;;5063656;28;19924;-55
2021/01/25 12:17:11;;;;;;;;;;;19.40;53.80;;;;;;5074375;28;19928;-56
2021/01/25 12:19:39;;;;;;;;;;;19.40;54.10;;;;;;5056693;28;19987;-54
2021/01/25 12:22:05;;;;;;;;;;;19.30;54.40;;;;;;5065990;28;19925;-54
2021/01/25 12:24:32;;;;;;;;;;;19.30;54.40;;;;;;5055240;28;19986;-53
2021/01/25 12:26:58;;;;;;;;;;;19.10;54.60;;;;;;5065204;28;19939;-54
2021/01/25 12:29:24;;;;;;;;;;;19.20;54.70;;;;;;5054293;28;20502;-54
2021/01/25 12:31:51;;;;;;;;;;;19.10;56.00;;;;;;5063693;28;19940;-60
2021/01/25 12:34:17;;;;;;;;;;;19.30;55.50;;;;;;5058301;28;19924;-62
2021/01/25 12:36:48;;;;;;;;;;;19.50;55.00;;;;;;5065825;28;19929;-61
2021/01/25 12:39:14;;;;;;;;;;;19.60;54.80;;;;;;5062728;28;19932;-60
2021/01/25 12:41:41;;;;;;;;;;;19.70;54.20;;;;;;5070838;28;19928;-60
2021/01/25 12:44:07;;;;;;;;;;;19.70;54.00;;;;;;5062897;28;19924;-61
2021/01/25 12:46:36;;;;;;;;;;;19.80;54.20;;;;;;5077742;28;19925;-61
2021/01/25 12:49:04;;;;;;;;;;;19.80;54.00;;;;;;5045388;28;20005;-59
2021/01/25 12:51:30;;;;;;;;;;;19.90;54.50;;;;;;5065165;28;20419;-59
2021/01/25 12:53:57;;;;;;;;;;;19.90;53.90;;;;;;5061578;28;19928;-62
2021/01/25 12:56:23;;;;;;;;;;;19.90;53.70;;;;;;5058235;28;19928;-61
2021/01/25 12:58:50;;;;;;;;;;;19.90;53.70;;;;;;5058803;28;19931;-61
2021/01/25 13:01:16;;;;;;;;;;;19.90;53.60;;;;;;5058849;28;19955;-62
2021/01/25 13:03:44;;;;;;;;;;;20.00;53.80;;;;;;5063758;28;19931;-61
2021/01/25 13:06:10;;;;;;;;;;;19.90;53.20;;;;;;5058016;28;20782;-60
2021/01/25 13:08:37;;;;;;;;;;;19.60;53.80;;;;;;5066030;28;19932;-59
2021/01/25 13:11:03;;;;;;;;;;;19.50;54.40;;;;;;5060439;28;19939;-61
2021/01/25 13:13:29;;;;;;;;;;;19.40;55.20;;;;;;5060036;28;19925;-60
2021/01/25 13:15:56;;;;;;;;;;;19.90;54.00;;;;;;5056364;28;19924;-60
2021/01/25 13:18:22;;;;;;;;;;;20.60;52.40;;;;;;5066434;28;19932;-61
2021/01/25 13:20:49;;;;;;;;;;;21.20;51.00;;;;;;5059829;28;19967;-62
2021/01/25 13:23:16;;;;;;;;;;;21.50;50.20;;;;;;5066174;28;19928;-61
2021/01/25 13:25:42;;;;;;;;;;;21.80;50.00;;;;;;5065007;28;19933;-60
2021/01/25 13:28:08;;;;;;;;;;;21.90;49.50;;;;;;5065097;28;20572;-61
2021/01/25 13:30:35;;;;;;;;;;;22.10;49.10;;;;;;5060254;28;20510;-60
2021/01/25 13:33:02;;;;;;;;;;;22.30;48.70;;;;;;5064044;28;20285;-62
2021/01/25 13:35:28;;;;;;;;;;;22.60;48.40;;;;;;5061827;28;20019;-56
2021/01/25 13:37:57;;;;;;;;;;;22.70;48.10;;;;;;5060530;28;19932;-56
2021/01/25 13:40:25;;;;;;;;;;;22.80;47.90;;;;;;5067403;28;19929;-56
2021/01/25 13:42:51;;;;;;;;;;;23.00;47.80;;;;;;5059865;28;20385;-56
2021/01/25 13:45:19;;;;;;;;;;;23.10;47.60;;;;;;5068740;28;19932;-56
2021/01/25 13:48:01;;;;;;;;;;;23.20;47.60;;;;;;5058013;28;19932;-57
2021/01/25 13:50:28;;;;;;;;;;;23.30;47.40;;;;;;5069873;28;19932;-56
2021/01/25 13:52:54;;;;;;;;;;;23.30;47.20;;;;;;5058328;28;19929;-57
2021/01/25 13:55:20;;;;;;;;;;;23.40;47.30;;;;;;5066840;28;19932;-56
2021/01/25 13:57:47;;;;;;;;;;;23.50;47.10;;;;;;5062788;28;20373;-56
2021/01/25 14:00:16;;;;;;;;;;;23.60;47.00;;;;;;5060898;28;20280;-55
2021/01/25 14:02:43;;;;;;;;;;;23.50;46.60;;;;;;5053930;28;20015;-56
2021/01/25 14:05:10;;;;;;;;;;;23.10;47.90;;;;;;5066182;28;19924;-57
2021/01/25 14:07:37;;;;;;;;;;;23.30;47.70;;;;;;5061623;28;19951;-57
2021/01/25 14:10:04;;;;;;;;;;;23.50;47.20;;;;;;5049120;28;19932;-57
2021/01/25 14:12:32;;;;;;;;;;;23.70;46.90;;;;;;5061734;28;20020;-56
2021/01/25 14:14:58;;;;;;;;;;;23.80;46.80;;;;;;5065411;28;19936;-57
2021/01/25 14:17:24;;;;;;;;;;;23.90;46.60;;;;;;5066305;28;19925;-57